createdAt,value
2023-05-04T00:01:23.044Z,11.98
2023-05-04T00:03:50.213Z,13.00
2023-05-04T00:06:17.350Z,12.50
2023-05-04T00:08:44.189Z,13.75
2023-05-04T00:11:11.558Z,12.35
2023-05-04T00:13:38.539Z,12.93
2023-05-04T00:16:05.704Z,12.80
2023-05-04T00:18:32.590Z,13.48
2023-05-04T00:20:59.397Z,12.70
2023-05-04T00:23:26.518Z,13.75
2023-05-04T00:25:53.858Z,14.65
2023-05-04T00:28:20.792Z,13.52
2023-05-04T00:30:48.172Z,13.50
2023-05-04T00:33:15.105Z,13.40
2023-05-04T00:35:42.066Z,13.20
2023-05-04T00:38:09.291Z,13.95
2023-05-04T00:40:36.923Z,15.55
2023-05-04T00:43:03.943Z,13.85
2023-05-04T00:45:30.917Z,12.93
2023-05-04T00:47:57.742Z,13.18
2023-05-04T00:50:25.666Z,14.20
2023-05-04T00:52:53.561Z,13.32
2023-05-04T00:55:20.792Z,13.48
2023-05-04T00:57:49.509Z,12.52
2023-05-04T01:00:16.786Z,12.65
2023-05-04T01:02:43.751Z,13.02
2023-05-04T01:05:11.072Z,12.77
2023-05-04T01:07:50.155Z,14.40
2023-05-04T01:10:36.155Z,14.65
2023-05-04T01:13:12.698Z,12.73
2023-05-04T01:15:40.179Z,13.85
2023-05-04T01:18:07.368Z,13.93
2023-05-04T01:20:34.369Z,13.32
2023-05-04T01:23:01.236Z,13.15
2023-05-04T01:25:40.152Z,13.70
2023-05-04T01:28:09.229Z,12.43
2023-05-04T01:30:46.716Z,11.57
2023-05-04T01:33:13.674Z,13.95
2023-05-04T01:35:40.601Z,13.65
2023-05-04T01:38:07.490Z,12.70
2023-05-04T01:40:34.309Z,11.63
2023-05-04T01:43:01.459Z,13.93
2023-05-04T01:45:28.580Z,12.88
2023-05-04T01:47:55.576Z,11.95
2023-05-04T01:50:22.368Z,12.60
2023-05-04T01:52:49.202Z,12.23
2023-05-04T01:55:16.281Z,13.73
2023-05-04T01:57:43.194Z,13.85
2023-05-04T02:00:12.348Z,14.13
2023-05-04T02:02:39.277Z,14.60
2023-05-04T02:05:06.638Z,12.57
2023-05-04T02:07:33.493Z,14.00
2023-05-04T02:10:00.712Z,15.50
2023-05-04T02:12:27.560Z,12.10
2023-05-04T02:14:54.358Z,14.70
2023-05-04T02:17:21.272Z,12.98
2023-05-04T02:19:48.110Z,13.50
2023-05-04T02:22:14.916Z,14.50
2023-05-04T02:24:41.817Z,13.70
2023-05-04T02:27:08.612Z,13.98
2023-05-04T02:29:35.608Z,15.35
2023-05-04T02:32:02.590Z,13.73
2023-05-04T02:34:30.045Z,14.18
2023-05-04T02:36:56.837Z,14.70
2023-05-04T02:39:23.800Z,14.93
2023-05-04T02:41:50.690Z,15.35
2023-05-04T02:44:17.533Z,14.70
2023-05-04T02:46:44.526Z,15.52
2023-05-04T02:49:11.634Z,15.50
2023-05-04T02:51:38.565Z,14.55
2023-05-04T02:54:07.068Z,16.15
2023-05-04T02:56:33.995Z,13.77
2023-05-04T02:59:00.799Z,13.70
2023-05-04T03:01:27.706Z,14.73
2023-05-04T03:03:54.539Z,12.25
2023-05-04T03:06:21.502Z,12.35
2023-05-04T03:08:48.432Z,12.30
2023-05-04T03:11:15.640Z,12.90
2023-05-04T03:13:42.566Z,12.23
2023-05-04T03:16:09.596Z,12.98
2023-05-04T03:21:21.219Z,13.15
2023-05-04T03:23:48.062Z,12.32
2023-05-04T03:26:14.954Z,11.70
2023-05-04T03:28:41.818Z,13.00
2023-05-04T03:31:08.695Z,11.98
2023-05-04T03:33:35.645Z,12.90
2023-05-04T03:36:03.152Z,12.60
2023-05-04T03:38:30.138Z,13.85
2023-05-04T03:40:57.072Z,12.60
2023-05-04T03:43:23.929Z,12.98
2023-05-04T03:45:50.989Z,13.82
2023-05-04T03:48:18.388Z,14.57
2023-05-04T03:50:45.281Z,13.43
2023-05-04T03:53:12.163Z,13.35
2023-05-04T03:55:39.407Z,13.05
2023-05-04T03:58:06.282Z,13.52
2023-05-04T04:00:33.112Z,13.52
2023-05-04T04:03:00.117Z,15.20
2023-05-04T04:05:27.181Z,13.48
2023-05-04T04:07:54.035Z,12.50
2023-05-04T04:10:20.910Z,13.23
2023-05-04T04:12:47.789Z,13.38
2023-05-04T04:15:14.790Z,13.05
2023-05-04T04:17:41.814Z,13.35
2023-05-04T04:20:09.275Z,12.57
2023-05-04T04:22:36.487Z,14.40
2023-05-04T04:25:03.708Z,13.68
2023-05-04T04:27:31.122Z,13.18
2023-05-04T04:29:58.110Z,12.80
2023-05-04T04:32:25.008Z,13.70
2023-05-04T04:34:51.799Z,12.25
2023-05-04T04:37:18.750Z,11.30
2023-05-04T04:39:45.768Z,11.23
2023-05-04T04:42:13.752Z,10.95
2023-05-04T04:44:41.417Z,10.60
2023-05-04T04:47:08.326Z,11.55
2023-05-04T04:49:35.143Z,9.88
2023-05-04T04:52:02.545Z,9.63
2023-05-04T04:54:29.557Z,9.20
2023-05-04T04:56:56.392Z,10.10
2023-05-04T04:59:25.249Z,9.30
2023-05-04T05:01:52.170Z,9.13
2023-05-04T05:04:19.938Z,9.15
2023-05-04T05:06:47.909Z,7.43
2023-05-04T05:09:14.817Z,9.02
2023-05-04T05:11:41.750Z,8.75
2023-05-04T05:14:08.600Z,7.55
2023-05-04T05:16:36.296Z,7.32
2023-05-04T05:19:03.822Z,6.22
2023-05-04T05:21:30.547Z,8.00
2023-05-04T05:23:57.399Z,7.07
2023-05-04T05:26:25.268Z,6.72
2023-05-04T05:28:52.345Z,7.80
2023-05-04T05:31:19.205Z,8.93
2023-05-04T05:33:46.303Z,7.90
2023-05-04T05:36:15.077Z,7.05
2023-05-04T05:38:41.953Z,6.80
2023-05-04T05:41:09.978Z,5.65
2023-05-04T05:43:38.894Z,6.15
2023-05-04T05:46:07.066Z,6.70
2023-05-04T05:48:34.106Z,6.80
2023-05-04T05:51:01.114Z,6.18
2023-05-04T05:53:28.033Z,5.32
2023-05-04T05:55:54.999Z,6.25
2023-05-04T05:58:22.030Z,5.75
2023-05-04T06:00:48.742Z,6.40
2023-05-04T06:03:15.707Z,7.38
2023-05-04T06:08:09.452Z,6.65
2023-05-04T06:10:36.309Z,6.72
2023-05-04T06:13:03.289Z,6.45
2023-05-04T06:15:30.521Z,6.10
2023-05-04T06:17:57.533Z,4.95
2023-05-04T06:20:24.442Z,5.90
2023-05-04T06:22:51.461Z,4.43
2023-05-04T06:25:18.323Z,5.30
2023-05-04T06:27:45.412Z,4.55
2023-05-04T06:30:13.817Z,5.28
2023-05-04T06:32:40.781Z,6.13
2023-05-04T06:35:09.334Z,4.70
2023-05-04T06:37:36.488Z,6.35
2023-05-04T06:40:04.460Z,7.75
2023-05-04T06:42:31.929Z,4.63
2023-05-04T06:47:25.548Z,5.95
2023-05-04T06:49:52.956Z,5.68
2023-05-04T06:52:19.788Z,5.78
2023-05-04T06:54:47.294Z,5.72
2023-05-04T06:59:41.426Z,4.30
2023-05-04T07:02:08.418Z,5.60
2023-05-04T07:04:35.239Z,3.33
2023-05-04T07:07:02.014Z,4.60
2023-05-04T07:09:28.877Z,3.45
2023-05-04T07:11:55.958Z,3.40
2023-05-04T07:14:22.856Z,4.50
2023-05-04T07:16:49.749Z,4.07
2023-05-04T07:19:16.586Z,3.70
2023-05-04T07:21:43.399Z,3.40
2023-05-04T07:24:10.482Z,5.35
2023-05-04T07:26:37.416Z,3.60
2023-05-04T07:29:04.874Z,3.70
2023-05-04T07:31:31.761Z,4.20
2023-05-04T07:34:07.754Z,4.85
2023-05-04T07:36:37.630Z,5.53
2023-05-04T07:39:04.541Z,4.93
2023-05-04T07:41:31.588Z,4.63
2023-05-04T07:43:58.664Z,5.00
2023-05-04T07:46:25.860Z,5.32
2023-05-04T07:48:52.683Z,5.20
2023-05-04T07:51:20.225Z,4.47
2023-05-04T07:53:47.141Z,7.00
2023-05-04T07:56:14.117Z,5.30
2023-05-04T07:58:43.747Z,5.28
2023-05-04T08:01:10.467Z,6.75
2023-05-04T08:03:37.419Z,5.38
2023-05-04T08:06:04.293Z,5.80
2023-05-04T08:08:31.236Z,7.40
2023-05-04T08:11:11.730Z,6.43
2023-05-04T08:13:46.054Z,5.20
2023-05-04T08:16:13.538Z,5.07
2023-05-04T08:18:40.500Z,4.97
2023-05-04T08:23:36.080Z,3.63
2023-05-04T08:26:03.797Z,4.85
2023-05-04T08:28:31.237Z,4.15
2023-05-04T08:30:58.256Z,9.17
2023-05-04T08:33:25.110Z,6.40
2023-05-04T08:35:51.966Z,5.68
2023-05-04T08:38:18.795Z,7.30
2023-05-04T08:40:46.031Z,5.25
2023-05-04T08:43:12.883Z,6.10
2023-05-04T08:45:40.033Z,6.43
2023-05-04T08:48:07.831Z,5.15
2023-05-04T08:50:35.200Z,6.63
2023-05-04T08:53:04.346Z,5.57
2023-05-04T08:55:41.962Z,6.32
2023-05-04T08:58:14.323Z,5.93
2023-05-04T09:00:41.659Z,7.05
2023-05-04T09:03:10.574Z,7.60
2023-05-04T09:05:38.506Z,7.63
2023-05-04T09:08:06.785Z,6.35
2023-05-04T09:13:00.431Z,6.78
2023-05-04T09:15:27.700Z,7.13
2023-05-04T09:17:59.146Z,6.60
2023-05-04T09:20:26.482Z,6.60
2023-05-04T09:23:07.550Z,7.05
2023-05-04T09:25:35.357Z,6.13
2023-05-04T09:28:02.149Z,6.45
2023-05-04T09:30:29.099Z,6.15
2023-05-04T09:32:56.187Z,6.80
2023-05-04T09:35:33.802Z,6.88
2023-05-04T09:38:01.176Z,6.45
2023-05-04T09:40:32.641Z,5.22
2023-05-04T09:43:01.217Z,6.32
2023-05-04T09:45:40.559Z,6.35
2023-05-04T09:48:27.344Z,8.10
2023-05-04T09:50:55.038Z,6.47
2023-05-04T09:53:26.265Z,5.65
2023-05-04T09:56:02.161Z,6.47
2023-05-04T09:58:30.882Z,6.40
2023-05-04T10:00:59.362Z,4.78
2023-05-04T10:05:53.454Z,6.18
2023-05-04T10:08:20.354Z,6.30
2023-05-04T10:10:47.159Z,6.93
2023-05-04T10:13:13.975Z,6.70
2023-05-04T10:16:03.771Z,6.95
2023-05-04T10:18:46.621Z,7.47
2023-05-04T10:21:28.795Z,6.97
2023-05-04T10:24:15.238Z,7.82
2023-05-04T10:26:53.836Z,6.28
2023-05-04T10:29:29.141Z,6.72
2023-05-04T10:31:57.151Z,6.85
2023-05-04T10:34:34.588Z,6.40
2023-05-04T10:37:02.591Z,7.78
2023-05-04T10:39:33.673Z,7.05
2023-05-04T10:42:02.935Z,7.25
2023-05-04T10:44:33.478Z,7.28
2023-05-04T10:47:08.170Z,6.78
2023-05-04T10:49:35.801Z,6.28
2023-05-04T10:52:12.099Z,6.77
2023-05-04T10:54:40.709Z,5.10
2023-05-04T10:57:09.504Z,6.50
2023-05-04T10:59:36.989Z,6.32
2023-05-04T11:02:05.351Z,5.47
2023-05-04T11:04:32.547Z,6.25
2023-05-04T11:07:04.231Z,7.40
2023-05-04T11:09:39.116Z,6.85
2023-05-04T11:12:07.388Z,7.07
2023-05-04T11:14:41.300Z,6.75
2023-05-04T11:17:23.850Z,5.82
2023-05-04T11:19:54.207Z,7.45
2023-05-04T11:22:21.127Z,7.32
2023-05-04T11:24:50.723Z,6.25
2023-05-04T11:27:31.204Z,6.75
2023-05-04T11:30:02.392Z,7.45
2023-05-04T11:32:41.000Z,8.20
2023-05-04T11:35:09.574Z,7.00
2023-05-04T11:40:15.547Z,7.05
2023-05-04T11:42:43.270Z,6.60
2023-05-04T11:45:21.639Z,7.63
2023-05-04T11:47:48.865Z,8.60
2023-05-04T11:50:17.371Z,7.38
2023-05-04T11:52:44.617Z,8.20
2023-05-04T11:55:12.255Z,6.10
2023-05-04T11:57:39.128Z,6.30
2023-05-04T12:00:07.564Z,8.85
2023-05-04T12:05:01.805Z,6.95
2023-05-04T12:07:28.759Z,5.90
2023-05-04T12:09:55.962Z,6.50
2023-05-04T12:12:22.970Z,6.95
2023-05-04T12:14:54.168Z,7.22
2023-05-04T12:17:21.555Z,6.65
2023-05-04T12:19:50.023Z,7.38
2023-05-04T12:24:44.403Z,6.75
2023-05-04T12:27:14.964Z,6.18
2023-05-04T12:29:41.995Z,6.72
2023-05-04T12:32:09.163Z,5.72
2023-05-04T12:34:38.655Z,6.78
2023-05-04T12:37:06.074Z,4.93
2023-05-04T12:39:34.583Z,6.20
2023-05-04T12:44:31.166Z,6.63
2023-05-04T12:46:58.088Z,7.30
2023-05-04T12:49:24.967Z,6.40
2023-05-04T12:51:52.156Z,7.75
2023-05-04T12:54:18.996Z,6.38
2023-05-04T12:56:45.927Z,5.75
2023-05-04T12:59:12.701Z,7.90
2023-05-04T13:01:41.978Z,6.05
2023-05-04T13:04:09.018Z,5.32
2023-05-04T13:06:36.302Z,6.72
2023-05-04T13:09:06.220Z,6.63
2023-05-04T13:11:33.080Z,7.20
2023-05-04T13:14:00.243Z,6.35
2023-05-04T13:16:28.366Z,4.50
2023-05-04T13:18:55.747Z,5.05
2023-05-04T13:21:22.777Z,5.60
2023-05-04T13:23:50.377Z,5.78
2023-05-04T13:26:17.404Z,5.30
2023-05-04T13:28:44.351Z,5.82
2023-05-04T13:31:11.204Z,5.45
2023-05-04T13:33:41.531Z,6.25
2023-05-04T13:36:08.552Z,6.15
2023-05-04T13:38:35.630Z,5.38
2023-05-04T13:41:02.398Z,5.35
2023-05-04T13:43:29.503Z,4.88
2023-05-04T13:45:57.450Z,5.18
2023-05-04T13:48:28.061Z,6.38
2023-05-04T13:50:55.073Z,5.68
2023-05-04T13:53:22.002Z,5.25
2023-05-04T13:55:48.817Z,6.50
2023-05-04T13:58:15.681Z,6.03
2023-05-04T14:00:43.649Z,5.65
2023-05-04T14:03:10.729Z,5.53
2023-05-04T14:05:37.653Z,5.43
2023-05-04T14:08:04.662Z,5.18
2023-05-04T14:10:31.765Z,4.15
2023-05-04T14:12:59.261Z,4.45
2023-05-04T14:15:27.679Z,5.10
2023-05-04T14:20:21.597Z,4.15
2023-05-04T14:22:48.489Z,4.30
2023-05-04T14:25:16.134Z,4.20
2023-05-04T14:27:45.803Z,4.43
2023-05-04T14:30:13.144Z,3.80
2023-05-04T14:32:41.392Z,3.78
2023-05-04T14:37:38.627Z,3.50
2023-05-04T14:40:06.968Z,3.38
2023-05-04T14:42:33.977Z,4.07
2023-05-04T14:45:00.894Z,3.45
2023-05-04T14:47:28.758Z,3.40
2023-05-04T14:49:55.738Z,4.22
2023-05-04T14:52:22.614Z,5.45
2023-05-04T14:54:49.513Z,3.78
2023-05-04T14:57:16.402Z,4.65
2023-05-04T14:59:44.027Z,3.53
2023-05-04T15:02:12.698Z,3.38
2023-05-04T15:04:39.622Z,3.40
2023-05-04T15:07:06.641Z,4.10
2023-05-04T15:09:33.836Z,4.00
2023-05-04T15:12:00.690Z,3.30
2023-05-04T15:14:27.656Z,3.60
2023-05-04T15:16:55.010Z,3.65
2023-05-04T15:19:22.212Z,5.22
2023-05-04T15:21:49.343Z,3.95
2023-05-04T15:24:16.465Z,4.05
2023-05-04T15:26:43.475Z,5.07
2023-05-04T15:29:10.420Z,3.50
2023-05-04T15:31:38.732Z,3.42
2023-05-04T15:34:05.807Z,3.30
2023-05-04T15:36:32.765Z,3.92
2023-05-04T15:38:59.664Z,3.67
2023-05-04T15:41:27.564Z,3.63
2023-05-04T15:43:54.485Z,3.33
2023-05-04T15:46:21.487Z,5.20
2023-05-04T15:48:48.594Z,3.15
2023-05-04T15:51:15.588Z,4.43
2023-05-04T15:53:42.652Z,3.72
2023-05-04T15:56:09.620Z,4.03
2023-05-04T15:58:36.426Z,3.13
2023-05-04T16:01:04.390Z,2.90
2023-05-04T16:05:58.822Z,2.90
2023-05-04T16:08:26.371Z,3.95
2023-05-04T16:10:53.702Z,3.45
2023-05-04T16:13:21.324Z,3.25
2023-05-04T16:15:51.856Z,3.28
2023-05-04T16:18:19.336Z,5.47
2023-05-04T16:20:47.444Z,3.80
2023-05-04T16:23:15.784Z,5.03
2023-05-04T16:25:42.811Z,3.70
2023-05-04T16:28:10.110Z,5.68
2023-05-04T16:30:37.233Z,3.25
2023-05-04T16:33:04.490Z,4.90
2023-05-04T16:35:34.210Z,3.90
2023-05-04T16:38:01.196Z,4.18
2023-05-04T16:40:28.629Z,4.28
2023-05-04T16:42:55.629Z,4.17
2023-05-04T16:45:25.164Z,3.03
2023-05-04T16:47:52.294Z,3.50
2023-05-04T16:50:19.201Z,3.50
2023-05-04T16:52:46.814Z,3.30
2023-05-04T16:55:13.885Z,2.90
2023-05-04T16:57:40.913Z,4.75
2023-05-04T17:00:09.325Z,4.55
2023-05-04T17:02:36.878Z,5.05
2023-05-04T17:05:06.968Z,3.22
2023-05-04T17:07:34.445Z,4.60
2023-05-04T17:10:01.800Z,4.22
2023-05-04T17:12:29.282Z,4.60
2023-05-04T17:14:56.313Z,5.72
2023-05-04T17:17:23.519Z,4.20
2023-05-04T17:19:50.720Z,4.15
2023-05-04T17:22:17.658Z,4.40
2023-05-04T17:24:45.783Z,4.53
2023-05-04T17:27:13.249Z,3.85
2023-05-04T17:29:41.315Z,5.28
2023-05-04T17:32:08.462Z,4.13
2023-05-04T17:34:36.157Z,4.53
2023-05-04T17:37:03.053Z,5.43
2023-05-04T17:39:31.789Z,4.88
2023-05-04T17:41:59.606Z,4.35
2023-05-04T17:44:28.554Z,3.43
2023-05-04T17:46:56.196Z,4.78
2023-05-04T17:49:23.134Z,3.77
2023-05-04T17:51:50.218Z,5.03
2023-05-04T17:54:17.231Z,5.43
2023-05-04T17:56:44.202Z,6.88
2023-05-04T17:59:11.591Z,6.60
2023-05-04T18:01:38.419Z,4.82
2023-05-04T18:04:05.697Z,4.90
2023-05-04T18:06:32.994Z,4.57
2023-05-04T18:09:00.639Z,5.80
2023-05-04T18:11:27.831Z,5.47
2023-05-04T18:13:56.656Z,7.22
2023-05-04T18:16:24.456Z,7.15
2023-05-04T18:18:51.834Z,5.10
2023-05-04T18:21:19.043Z,4.72
2023-05-04T18:23:46.452Z,4.32
2023-05-04T18:26:22.991Z,4.95
2023-05-04T18:28:50.374Z,5.18
2023-05-04T18:31:17.772Z,5.50
2023-05-04T18:33:45.388Z,3.65
2023-05-04T18:36:12.221Z,4.43
2023-05-04T18:38:39.851Z,4.93
2023-05-04T18:41:06.772Z,6.40
2023-05-04T18:43:33.661Z,4.35
2023-05-04T18:46:07.893Z,7.38
2023-05-04T18:48:35.273Z,4.45
2023-05-04T18:51:02.930Z,5.75
2023-05-04T18:53:30.358Z,4.30
2023-05-04T18:56:04.597Z,3.97
2023-05-04T18:58:31.574Z,3.50
2023-05-04T19:00:58.604Z,4.18
2023-05-04T19:03:25.850Z,3.50
2023-05-04T19:05:52.900Z,4.28
2023-05-04T19:08:19.860Z,4.88
2023-05-04T19:10:47.228Z,8.10
2023-05-04T19:13:16.354Z,9.98
2023-05-04T19:15:43.542Z,8.40
2023-05-04T19:18:11.114Z,7.07
2023-05-04T19:20:39.041Z,6.00
2023-05-04T19:23:06.034Z,5.00
2023-05-04T19:25:35.240Z,5.38
2023-05-04T19:28:08.993Z,4.07
2023-05-04T19:30:37.324Z,5.03
2023-05-04T19:33:05.606Z,3.78
2023-05-04T19:35:32.670Z,4.13
2023-05-04T19:38:01.839Z,2.92
2023-05-04T19:40:28.884Z,3.45
2023-05-04T19:42:55.790Z,4.80
2023-05-04T19:45:23.528Z,3.65
2023-05-04T19:47:52.505Z,2.85
2023-05-04T19:52:46.320Z,2.95
2023-05-04T19:55:13.395Z,2.80
2023-05-04T19:57:40.459Z,2.78
2023-05-04T20:00:10.104Z,3.17
2023-05-04T20:02:38.322Z,3.92
2023-05-04T20:05:09.150Z,2.57
2023-05-04T20:07:36.017Z,3.08
2023-05-04T20:10:03.263Z,4.18
2023-05-04T20:12:30.352Z,2.97
2023-05-04T20:14:57.225Z,3.55
2023-05-04T20:17:24.204Z,2.63
2023-05-04T20:19:51.160Z,4.07
2023-05-04T20:22:18.004Z,2.78
2023-05-04T20:24:45.198Z,4.20
2023-05-04T20:27:12.756Z,3.50
2023-05-04T20:29:39.743Z,5.28
2023-05-04T20:32:07.527Z,4.25
2023-05-04T20:34:34.439Z,5.28
2023-05-04T20:37:01.299Z,6.50
2023-05-04T20:39:28.290Z,5.78
2023-05-04T20:41:55.319Z,6.68
2023-05-04T20:44:22.588Z,8.20
2023-05-04T20:46:49.502Z,5.00
2023-05-04T20:49:16.436Z,6.07
2023-05-04T20:51:43.334Z,7.13
2023-05-04T20:54:10.228Z,6.55
2023-05-04T20:56:37.252Z,7.03
2023-05-04T20:59:04.007Z,5.95
2023-05-04T21:01:30.990Z,6.00
2023-05-04T21:03:58.135Z,6.28
2023-05-04T21:06:25.490Z,7.05
2023-05-04T21:08:52.555Z,6.85
2023-05-04T21:11:19.777Z,8.63
2023-05-04T21:13:46.651Z,6.68
2023-05-04T21:16:14.083Z,7.28
2023-05-04T21:18:41.175Z,8.65
2023-05-04T21:21:08.061Z,8.00
2023-05-04T21:23:34.890Z,7.53
2023-05-04T21:26:04.658Z,7.55
2023-05-04T21:28:32.247Z,7.68
2023-05-04T21:30:59.155Z,7.22
2023-05-04T21:33:26.301Z,7.45
2023-05-04T21:35:53.199Z,7.57
2023-05-04T21:38:22.033Z,7.25
2023-05-04T21:40:49.967Z,8.23
2023-05-04T21:43:16.848Z,6.80
2023-05-04T21:45:43.901Z,7.47
2023-05-04T21:48:11.010Z,7.47
2023-05-04T21:50:37.963Z,7.68
2023-05-04T21:53:05.048Z,8.15
2023-05-04T21:55:31.948Z,9.43
2023-05-04T21:57:58.909Z,7.85
2023-05-04T22:00:26.004Z,8.43
2023-05-04T22:02:56.122Z,8.23
2023-05-04T22:05:23.227Z,8.90
2023-05-04T22:07:50.629Z,8.23
2023-05-04T22:10:18.154Z,8.32
2023-05-04T22:12:45.201Z,8.52
2023-05-04T22:15:11.981Z,7.97
2023-05-04T22:17:39.054Z,8.00
2023-05-04T22:20:07.245Z,8.60
2023-05-04T22:22:35.973Z,8.88
2023-05-04T22:25:03.444Z,9.07
2023-05-04T22:27:30.475Z,8.63
2023-05-04T22:29:57.312Z,7.80
2023-05-04T22:32:24.086Z,9.10
2023-05-04T22:34:51.202Z,10.00
2023-05-04T22:37:18.067Z,7.97
2023-05-04T22:39:44.916Z,8.57
2023-05-04T22:42:11.757Z,10.45
2023-05-04T22:44:38.666Z,9.18
2023-05-04T22:47:05.860Z,10.35
2023-05-04T22:49:32.748Z,9.32
2023-05-04T22:51:59.781Z,9.07
2023-05-04T22:54:26.856Z,10.18
2023-05-04T22:56:53.814Z,10.00
2023-05-04T22:59:20.953Z,8.35
2023-05-04T23:01:48.597Z,10.52
2023-05-04T23:04:15.648Z,9.00
2023-05-04T23:06:42.445Z,9.75
2023-05-04T23:09:09.652Z,9.90
2023-05-04T23:11:36.690Z,10.23
2023-05-04T23:14:03.728Z,9.40
2023-05-04T23:16:30.774Z,10.80
2023-05-04T23:18:58.220Z,8.80
2023-05-04T23:21:25.024Z,9.30
2023-05-04T23:23:52.495Z,8.20
2023-05-04T23:26:19.562Z,8.90
2023-05-04T23:28:46.484Z,9.73
2023-05-04T23:31:13.499Z,8.88
2023-05-04T23:33:40.477Z,10.20
2023-05-04T23:36:07.783Z,9.60
2023-05-04T23:38:35.209Z,10.23
2023-05-04T23:41:05.671Z,8.82
2023-05-04T23:43:32.546Z,10.70
2023-05-04T23:46:03.870Z,9.68
2023-05-04T23:48:32.065Z,9.00
2023-05-04T23:51:04.538Z,10.05
2023-05-04T23:53:35.467Z,9.50
2023-05-04T23:56:04.695Z,9.27
